Time;durP1;ratioP1;P1;durP2;ratioP2;P2;SDS_P1;SDS_P2;PMS_P1;PMS_P2;Temp;Humidity;BMP_temperature;BMP_pressure;BME280_temperature;BME280_humidity;BME280_pressure;Samples;Min_cycle;Max_cycle;Signal;HPM_P1;HPM_P2
2022/01/21 00:01:29;;;;;;;;;;;;;;;;;;5052124;28;20664;-90
2022/01/21 00:03:55;;;;;;;;;;;;;;;;;;5089345;28;19940;-88
2022/01/21 00:06:22;;;;;;;;;;;;;;;;;;5089883;28;19963;-88
2022/01/21 00:08:48;;;;;;;;;;;;;;;;;;5088789;28;20339;-90
2022/01/21 00:11:14;;;;;;;;;;;;;;;;;;5087239;28;19924;-89
2022/01/21 00:13:40;;;;;;;;;;;;;;;;;;5088366;28;19963;-89
2022/01/21 00:16:06;;;;;;;;;;;;;;;;;;5090033;28;19959;-88
2022/01/21 00:18:33;;;;;;;;;;;;;;;;;;5087448;28;19955;-88
2022/01/21 00:31:59;;;;;;;;;;;;;;;;;;5084426;28;22346;-88
2022/01/21 00:34:25;;;;;;;;;;;;;;;;;;5065039;28;19928;-84
2022/01/21 00:36:51;;;;;;;;;;;;;;;;;;5084567;28;19916;-88
2022/01/21 00:39:22;;;;;;;;;;;;;;;;;;5089292;28;19970;-88
2022/01/21 00:41:59;;;;;;;;;;;;;;;;;;5078805;28;20452;-88
2022/01/21 00:44:25;;;;;;;;;;;;;;;;;;5084957;28;20006;-80
2022/01/21 00:46:51;;;;;;;;;;;;;;;;;;5085999;28;19960;-88
2022/01/21 00:49:18;;;;;;;;;;;;;;;;;;5077999;28;20400;-88
2022/01/21 00:51:44;;;;;;;;;;;;;;;;;;5059488;28;19955;-88
2022/01/21 00:54:10;;;;;;;;;;;;;;;;;;5081252;28;20342;-87
2022/01/21 00:56:36;;;;;;;;;;;;;;;;;;5079780;28;19944;-91
2022/01/21 00:59:02;;;;;;;;;;;;;;;;;;5065011;28;19947;-90
2022/01/21 01:01:29;;;;;;;;;;;;;;;;;;5085208;28;19920;-88
2022/01/21 01:03:55;;;;;;;;;;;;;;;;;;5083571;28;19951;-89
2022/01/21 01:06:21;;;;;;;;;;;;;;;;;;5095604;28;19924;-89
2022/01/21 01:08:49;;;;;;;;;;;;;;;;;;5084241;28;19931;-88
2022/01/21 01:11:21;;;;;;;;;;;;;;;;;;5087960;28;19927;-87
2022/01/21 01:22:04;;;;;;;;;;;;;;;;;;5083495;28;20164;-89
2022/01/21 01:29:56;;;;;;;;;;;;;;;;;;5090113;28;22065;-91
2022/01/21 01:32:23;;;;;;;;;;;;;;;;;;5068059;28;19917;-90
2022/01/21 01:34:49;;;;;;;;;;;;;;;;;;5074206;28;19970;-90
2022/01/21 01:37:31;;;;;;;;;;;;;;;;;;5087578;28;19927;-87
2022/01/21 01:40:11;;;;;;;;;;;;;;;;;;5081559;28;20209;-88
2022/01/21 01:50:43;;;;;;;;;;;;;;;;;;5092855;28;19916;-91
2022/01/21 01:53:09;;;;;;;;;;;;;;;;;;5082812;28;19924;-91
2022/01/21 01:55:36;;;;;;;;;;;;;;;;;;5078463;28;19935;-91
2022/01/21 01:58:02;;;;;;;;;;;;;;;;;;5094051;28;20358;-91
2022/01/21 02:00:28;;;;;;;;;;;;;;;;;;5091905;28;19931;-91
2022/01/21 02:02:54;;;;;;;;;;;;;;;;;;5071523;28;19962;-89
2022/01/21 02:05:20;;;;;;;;;;;;;;;;;;5071090;28;19938;-89
2022/01/21 02:07:47;;;;;;;;;;;;;;;;;;5087304;28;19990;-90
2022/01/21 02:10:13;;;;;;;;;;;;;;;;;;5084021;28;19958;-88
2022/01/21 02:12:39;;;;;;;;;;;;;;;;;;5087111;28;20447;-85
2022/01/21 02:15:05;;;;;;;;;;;;;;;;;;5087216;28;19948;-84
2022/01/21 02:22:47;;;;;;;;;;;;;;;;;;5091264;28;19920;-87
2022/01/21 02:25:18;;;;;;;;;;;;;;;;;;5067902;28;19959;-87
2022/01/21 02:27:45;;;;;;;;;;;;;;;;;;5080419;28;19929;-87
2022/01/21 02:30:18;;;;;;;;;;;;;;;;;;5070968;28;19916;-86
2022/01/21 02:32:44;;;;;;;;;;;;;;;;;;5082688;28;19912;-87
2022/01/21 02:35:10;;;;;;;;;;;;;;;;;;5080688;28;19960;-86
2022/01/21 02:37:38;;;;;;;;;;;;;;;;;;5090104;28;19982;-88
2022/01/21 02:40:04;;;;;;;;;;;;;;;;;;5089990;28;20371;-87
2022/01/21 02:42:31;;;;;;;;;;;;;;;;;;5089083;28;19956;-89
2022/01/21 02:44:57;;;;;;;;;;;;;;;;;;5071417;28;19971;-89
2022/01/21 02:47:23;;;;;;;;;;;;;;;;;;5073634;28;20409;-89
2022/01/21 02:49:49;;;;;;;;;;;;;;;;;;5084419;28;19951;-89
2022/01/21 02:52:18;;;;;;;;;;;;;;;;;;5087643;28;19952;-89
2022/01/21 02:54:44;;;;;;;;;;;;;;;;;;5086658;28;19916;-89
2022/01/21 02:57:10;;;;;;;;;;;;;;;;;;5089922;28;19966;-87
2022/01/21 02:59:37;;;;;;;;;;;;;;;;;;5089261;28;19951;-88
2022/01/21 03:02:03;;;;;;;;;;;;;;;;;;5085277;28;19974;-86
2022/01/21 03:04:38;;;;;;;;;;;;;;;;;;5088554;28;19958;-85
2022/01/21 03:07:04;;;;;;;;;;;;;;;;;;5085568;28;19978;-86
2022/01/21 03:09:30;;;;;;;;;;;;;;;;;;5067154;28;19967;-85
2022/01/21 03:11:57;;;;;;;;;;;;;;;;;;5080465;28;19959;-84
2022/01/21 03:14:23;;;;;;;;;;;;;;;;;;5081329;28;19958;-86
2022/01/21 03:16:49;;;;;;;;;;;;;;;;;;5087836;28;20010;-85
2022/01/21 03:19:15;;;;;;;;;;;;;;;;;;5068391;28;19999;-85
2022/01/21 03:21:41;;;;;;;;;;;;;;;;;;5078720;28;19944;-85
2022/01/21 03:24:07;;;;;;;;;;;;;;;;;;5088316;28;19994;-85
2022/01/21 03:26:34;;;;;;;;;;;;;;;;;;5084119;28;19951;-85
2022/01/21 03:29:00;;;;;;;;;;;;;;;;;;5082284;28;20004;-86
2022/01/21 03:31:26;;;;;;;;;;;;;;;;;;5051047;28;19959;-86
2022/01/21 03:33:52;;;;;;;;;;;;;;;;;;5084863;28;19951;-85
2022/01/21 03:36:18;;;;;;;;;;;;;;;;;;5089025;28;20332;-85
2022/01/21 03:38:45;;;;;;;;;;;;;;;;;;5069974;28;20020;-86
2022/01/21 03:41:11;;;;;;;;;;;;;;;;;;5079819;28;19955;-85
2022/01/21 03:43:37;;;;;;;;;;;;;;;;;;5082998;28;19956;-86
2022/01/21 03:46:03;;;;;;;;;;;;;;;;;;5090862;28;19921;-86
2022/01/21 03:48:29;;;;;;;;;;;;;;;;;;5083242;28;19968;-86
2022/01/21 03:50:56;;;;;;;;;;;;;;;;;;5070808;28;20375;-87
2022/01/21 03:53:22;;;;;;;;;;;;;;;;;;5084166;28;19954;-88
2022/01/21 03:55:48;;;;;;;;;;;;;;;;;;5080462;28;19947;-87
2022/01/21 03:58:14;;;;;;;;;;;;;;;;;;5053389;28;19947;-86
2022/01/21 04:00:41;;;;;;;;;;;;;;;;;;5080744;28;19967;-85
2022/01/21 04:03:07;;;;;;;;;;;;;;;;;;5081116;28;20432;-87
2022/01/21 04:05:34;;;;;;;;;;;;;;;;;;5080440;28;19940;-87
2022/01/21 04:08:00;;;;;;;;;;;;;;;;;;5086069;28;19955;-84
2022/01/21 04:10:27;;;;;;;;;;;;;;;;;;5085386;28;20745;-80
2022/01/21 04:12:53;;;;;;;;;;;;;;;;;;5061483;28;19955;-84
2022/01/21 04:15:19;;;;;;;;;;;;;;;;;;5071144;28;20414;-89
2022/01/21 04:17:46;;;;;;;;;;;;;;;;;;5069629;28;19965;-88
2022/01/21 04:20:19;;;;;;;;;;;;;;;;;;5083898;28;19923;-87
2022/01/21 04:22:45;;;;;;;;;;;;;;;;;;5088813;28;19936;-88
2022/01/21 04:25:12;;;;;;;;;;;;;;;;;;5087430;28;19912;-87
2022/01/21 04:27:38;;;;;;;;;;;;;;;;;;5088927;28;20094;-88
2022/01/21 04:30:04;;;;;;;;;;;;;;;;;;5087509;28;20525;-88
2022/01/21 04:32:30;;;;;;;;;;;;;;;;;;5068830;28;19943;-85
2022/01/21 04:34:56;;;;;;;;;;;;;;;;;;5065029;28;19964;-86
2022/01/21 04:37:23;;;;;;;;;;;;;;;;;;5085835;28;19959;-84
2022/01/21 04:39:59;;;;;;;;;;;;;;;;;;5085227;28;19956;-84
2022/01/21 04:47:56;;;;;;;;;;;;;;;;;;5083339;28;21145;-85
2022/01/21 04:50:24;;;;;;;;;;;;;;;;;;5085744;28;19951;-87
2022/01/21 04:52:51;;;;;;;;;;;;;;;;;;5084344;28;20388;-87
2022/01/21 04:55:17;;;;;;;;;;;;;;;;;;5085817;28;19963;-87
2022/01/21 04:57:43;;;;;;;;;;;;;;;;;;5082177;28;20213;-87
2022/01/21 05:00:09;;;;;;;;;;;;;;;;;;5086676;28;19963;-88
2022/01/21 05:02:36;;;;;;;;;;;;;;;;;;5084703;28;19917;-87
2022/01/21 05:05:03;;;;;;;;;;;;;;;;;;5088360;28;20013;-84
2022/01/21 05:07:30;;;;;;;;;;;;;;;;;;5062374;28;20414;-85
2022/01/21 05:09:57;;;;;;;;;;;;;;;;;;5068932;28;20440;-85
2022/01/21 05:12:25;;;;;;;;;;;;;;;;;;5084982;28;20210;-85
2022/01/21 05:17:17;;;;;;;;;;;;;;;;;;5086429;28;20594;-85
2022/01/21 05:19:43;;;;;;;;;;;;;;;;;;5081705;28;19958;-85
2022/01/21 05:22:10;;;;;;;;;;;;;;;;;;5085838;28;19951;-86
2022/01/21 05:24:36;;;;;;;;;;;;;;;;;;5083680;28;19947;-83
2022/01/21 05:27:02;;;;;;;;;;;;;;;;;;5084813;28;19959;-85
2022/01/21 05:29:28;;;;;;;;;;;;;;;;;;5083646;28;19948;-86
2022/01/21 05:31:55;;;;;;;;;;;;;;;;;;5068023;28;19960;-90
2022/01/21 05:34:21;;;;;;;;;;;;;;;;;;5079428;28;20384;-84
2022/01/21 05:36:47;;;;;;;;;;;;;;;;;;5081833;28;19967;-87
2022/01/21 05:39:13;;;;;;;;;;;;;;;;;;5080913;28;19961;-83
2022/01/21 05:41:40;;;;;;;;;;;;;;;;;;5080771;28;19978;-84
2022/01/21 05:44:13;;;;;;;;;;;;;;;;;;5086839;28;19959;-85
2022/01/21 05:46:57;;;;;;;;;;;;;;;;;;5085613;28;19960;-85
2022/01/21 05:49:23;;;;;;;;;;;;;;;;;;5074636;28;19973;-85
2022/01/21 05:51:50;;;;;;;;;;;;;;;;;;5088953;28;19959;-84
2022/01/21 05:54:23;;;;;;;;;;;;;;;;;;5083392;28;19996;-85
2022/01/21 05:56:49;;;;;;;;;;;;;;;;;;5085545;28;19971;-84
2022/01/21 05:59:15;;;;;;;;;;;;;;;;;;5078885;28;19917;-86
2022/01/21 06:01:41;;;;;;;;;;;;;;;;;;5075939;28;19956;-85
2022/01/21 06:04:07;;;;;;;;;;;;;;;;;;5074117;28;20436;-86
2022/01/21 06:06:34;;;;;;;;;;;;;;;;;;5086497;28;19960;-86
2022/01/21 06:09:00;;;;;;;;;;;;;;;;;;5089922;28;19964;-86
2022/01/21 06:11:26;;;;;;;;;;;;;;;;;;5088718;28;19955;-86
2022/01/21 06:13:52;;;;;;;;;;;;;;;;;;5068308;28;20405;-86
2022/01/21 06:16:19;;;;;;;;;;;;;;;;;;5063505;28;19968;-87
2022/01/21 06:18:45;;;;;;;;;;;;;;;;;;5054711;28;20002;-87
2022/01/21 06:21:11;;;;;;;;;;;;;;;;;;5080919;28;19952;-88
2022/01/21 06:23:37;;;;;;;;;;;;;;;;;;5089597;28;20598;-89
2022/01/21 06:26:03;;;;;;;;;;;;;;;;;;5091611;28;19961;-86
2022/01/21 06:28:30;;;;;;;;;;;;;;;;;;5089163;28;19964;-85
2022/01/21 06:30:56;;;;;;;;;;;;;;;;;;5090424;28;19948;-87
2022/01/21 06:33:22;;;;;;;;;;;;;;;;;;5063077;28;19974;-85
2022/01/21 06:35:48;;;;;;;;;;;;;;;;;;5087343;28;20065;-86
2022/01/21 06:38:14;;;;;;;;;;;;;;;;;;5086939;28;20380;-85
2022/01/21 06:40:41;;;;;;;;;;;;;;;;;;5086859;28;19955;-87
2022/01/21 06:43:07;;;;;;;;;;;;;;;;;;5087534;28;19955;-86
2022/01/21 06:45:33;;;;;;;;;;;;;;;;;;5085529;28;19944;-84
2022/01/21 06:47:59;;;;;;;;;;;;;;;;;;5088988;28;19970;-83
2022/01/21 06:50:25;;;;;;;;;;;;;;;;;;5085880;28;19971;-80
2022/01/21 06:52:52;;;;;;;;;;;;;;;;;;5085157;28;19964;-82
2022/01/21 06:55:18;;;;;;;;;;;;;;;;;;5068945;28;19951;-83
2022/01/21 06:57:44;;;;;;;;;;;;;;;;;;5067143;28;20012;-83
2022/01/21 07:00:10;;;;;;;;;;;;;;;;;;5087940;28;19943;-83
2022/01/21 07:02:36;;;;;;;;;;;;;;;;;;5087549;28;19951;-82
2022/01/21 07:05:04;;;;;;;;;;;;;;;;;;5087128;28;20400;-82
2022/01/21 07:07:30;;;;;;;;;;;;;;;;;;5068873;28;20024;-82
2022/01/21 07:09:57;;;;;;;;;;;;;;;;;;5084986;28;19974;-83
2022/01/21 07:12:23;;;;;;;;;;;;;;;;;;5086546;28;19956;-83
2022/01/21 07:14:49;;;;;;;;;;;;;;;;;;5083614;28;19963;-82
2022/01/21 07:17:15;;;;;;;;;;;;;;;;;;5084178;28;20371;-82
2022/01/21 07:19:41;;;;;;;;;;;;;;;;;;5064181;28;19947;-82
2022/01/21 07:22:07;;;;;;;;;;;;;;;;;;5067917;28;19966;-83
2022/01/21 07:24:34;;;;;;;;;;;;;;;;;;5066269;28;19959;-82
2022/01/21 07:27:00;;;;;;;;;;;;;;;;;;5060232;28;19958;-82
2022/01/21 07:29:26;;;;;;;;;;;;;;;;;;5082087;28;19960;-82
2022/01/21 07:31:54;;;;;;;;;;;;;;;;;;5084987;28;20054;-82
2022/01/21 07:34:20;;;;;;;;;;;;;;;;;;5068025;28;19955;-81
2022/01/21 07:36:46;;;;;;;;;;;;;;;;;;5082505;28;19959;-82
2022/01/21 07:39:13;;;;;;;;;;;;;;;;;;5087698;28;19963;-82
2022/01/21 07:41:39;;;;;;;;;;;;;;;;;;5085417;28;19967;-81
2022/01/21 07:44:05;;;;;;;;;;;;;;;;;;5069152;28;19944;-82
2022/01/21 07:46:31;;;;;;;;;;;;;;;;;;5087598;28;19912;-81
2022/01/21 07:48:59;;;;;;;;;;;;;;;;;;5091550;28;19935;-82
2022/01/21 07:51:25;;;;;;;;;;;;;;;;;;5077764;28;19978;-82
2022/01/21 07:53:51;;;;;;;;;;;;;;;;;;5083476;28;19951;-81
2022/01/21 07:56:18;;;;;;;;;;;;;;;;;;5085185;28;19955;-83
2022/01/21 07:58:44;;;;;;;;;;;;;;;;;;5083634;28;19955;-82
2022/01/21 08:01:10;;;;;;;;;;;;;;;;;;5083389;28;19985;-82
2022/01/21 08:03:36;;;;;;;;;;;;;;;;;;5083185;28;20344;-82
2022/01/21 08:06:02;;;;;;;;;;;;;;;;;;5087435;28;19949;-81
2022/01/21 08:08:30;;;;;;;;;;;;;;;;;;5076168;28;19924;-81
2022/01/21 08:10:56;;;;;;;;;;;;;;;;;;5061706;28;19966;-82
2022/01/21 08:13:22;;;;;;;;;;;;;;;;;;5084209;28;19960;-82
2022/01/21 08:15:49;;;;;;;;;;;;;;;;;;5084940;28;19928;-82
2022/01/21 08:18:15;;;;;;;;;;;;;;;;;;5069078;28;19966;-82
2022/01/21 08:20:42;;;;;;;;;;;;;;;;;;5079592;28;19951;-81
2022/01/21 08:23:09;;;;;;;;;;;;;;;;;;5066350;28;19928;-82
2022/01/21 08:25:35;;;;;;;;;;;;;;;;;;5084387;28;19966;-82
2022/01/21 08:28:02;;;;;;;;;;;;;;;;;;5085138;28;19963;-82
2022/01/21 08:30:28;;;;;;;;;;;;;;;;;;5084741;28;20128;-81
2022/01/21 08:32:54;;;;;;;;;;;;;;;;;;5085444;28;19967;-82
2022/01/21 08:35:20;;;;;;;;;;;;;;;;;;5081809;28;19966;-82
2022/01/21 08:37:46;;;;;;;;;;;;;;;;;;5064697;28;19958;-83
2022/01/21 08:40:13;;;;;;;;;;;;;;;;;;5084074;28;19963;-82
2022/01/21 08:42:39;;;;;;;;;;;;;;;;;;5080435;28;19974;-82
2022/01/21 08:45:05;;;;;;;;;;;;;;;;;;5085765;28;20015;-82
2022/01/21 08:47:31;;;;;;;;;;;;;;;;;;5083452;28;20714;-82
2022/01/21 08:50:01;;;;;;;;;;;;;;;;;;5082415;28;19963;-82
2022/01/21 08:52:29;;;;;;;;;;;;;;;;;;5081046;28;19973;-82
2022/01/21 08:54:55;;;;;;;;;;;;;;;;;;5080684;28;19967;-82
2022/01/21 08:57:21;;;;;;;;;;;;;;;;;;5078282;28;20012;-83
2022/01/21 08:59:49;;;;;;;;;;;;;;;;;;5081589;28;19959;-82
2022/01/21 09:02:15;;;;;;;;;;;;;;;;;;5086407;28;20079;-82
2022/01/21 09:04:41;;;;;;;;;;;;;;;;;;5085974;28;19958;-81
2022/01/21 09:07:07;;;;;;;;;;;;;;;;;;5085964;28;20077;-83
2022/01/21 09:09:34;;;;;;;;;;;;;;;;;;5087352;28;19924;-81
2022/01/21 09:12:01;;;;;;;;;;;;;;;;;;5084391;28;19970;-81
2022/01/21 09:14:27;;;;;;;;;;;;;;;;;;5084918;28;19963;-83
2022/01/21 09:16:53;;;;;;;;;;;;;;;;;;5080537;28;21714;-83
2022/01/21 09:19:19;;;;;;;;;;;;;;;;;;5084219;28;19959;-83
2022/01/21 09:21:51;;;;;;;;;;;;;;;;;;5065946;28;20563;-83
2022/01/21 09:24:17;;;;;;;;;;;;;;;;;;5088523;28;19947;-81
2022/01/21 09:26:43;;;;;;;;;;;;;;;;;;5086683;28;19952;-82
2022/01/21 09:29:09;;;;;;;;;;;;;;;;;;5085688;28;19934;-82
2022/01/21 09:31:36;;;;;;;;;;;;;;;;;;5085490;28;19950;-82
2022/01/21 09:34:03;;;;;;;;;;;;;;;;;;5084835;28;19960;-82
2022/01/21 09:36:29;;;;;;;;;;;;;;;;;;5082952;28;19943;-81
2022/01/21 09:38:56;;;;;;;;;;;;;;;;;;5081307;28;19959;-80
2022/01/21 09:41:22;;;;;;;;;;;;;;;;;;5087220;28;20356;-81
2022/01/21 09:43:48;;;;;;;;;;;;;;;;;;5086207;28;19952;-83
2022/01/21 09:46:15;;;;;;;;;;;;;;;;;;5089825;28;19916;-83
2022/01/21 09:48:52;;;;;;;;;;;;;;;;;;5087839;28;20343;-83
2022/01/21 09:51:18;;;;;;;;;;;;;;;;;;5084139;28;19928;-83
2022/01/21 09:53:44;;;;;;;;;;;;;;;;;;5080361;28;20368;-83
2022/01/21 09:56:10;;;;;;;;;;;;;;;;;;5084354;28;19959;-83
2022/01/21 09:58:36;;;;;;;;;;;;;;;;;;5063066;28;19963;-83
2022/01/21 10:01:05;;;;;;;;;;;;;;;;;;5088130;28;20661;-83
2022/01/21 10:03:31;;;;;;;;;;;;;;;;;;5088141;28;19959;-83
2022/01/21 10:05:57;;;;;;;;;;;;;;;;;;5071164;28;20008;-83
2022/01/21 10:08:24;;;;;;;;;;;;;;;;;;5083482;28;19928;-83
2022/01/21 10:10:50;;;;;;;;;;;;;;;;;;5088174;28;19962;-83
2022/01/21 10:13:16;;;;;;;;;;;;;;;;;;5070570;28;19975;-83
2022/01/21 10:15:42;;;;;;;;;;;;;;;;;;5086569;28;19916;-82
2022/01/21 10:18:09;;;;;;;;;;;;;;;;;;5076673;28;20588;-82
2022/01/21 10:20:35;;;;;;;;;;;;;;;;;;5089304;28;19955;-82
2022/01/21 10:23:02;;;;;;;;;;;;;;;;;;5087161;28;19967;-83
2022/01/21 10:25:28;;;;;;;;;;;;;;;;;;5063708;28;19969;-76
2022/01/21 10:27:54;;;;;;;;;;;;;;;;;;5085678;28;20339;-83
2022/01/21 10:30:21;;;;;;;;;;;;;;;;;;5101796;28;19916;-83
2022/01/21 10:32:47;;;;;;;;;;;;;;;;;;5094175;28;19912;-84
2022/01/21 10:35:13;;;;;;;;;;;;;;;;;;5087377;28;19958;-81
2022/01/21 10:37:39;;;;;;;;;;;;;;;;;;5066848;28;20426;-82
2022/01/21 10:40:05;;;;;;;;;;;;;;;;;;5086378;28;19960;-81
2022/01/21 10:42:32;;;;;;;;;;;;;;;;;;5085253;28;19960;-81
2022/01/21 10:44:58;;;;;;;;;;;;;;;;;;5081876;28;19959;-82
2022/01/21 10:47:24;;;;;;;;;;;;;;;;;;5083241;28;20660;-81
2022/01/21 10:49:50;;;;;;;;;;;;;;;;;;5066454;28;19955;-82
2022/01/21 10:52:18;;;;;;;;;;;;;;;;;;5088423;28;20402;-82
2022/01/21 10:54:44;;;;;;;;;;;;;;;;;;5085528;28;20058;-82
2022/01/21 10:57:10;;;;;;;;;;;;;;;;;;5079846;28;19956;-83
2022/01/21 10:59:36;;;;;;;;;;;;;;;;;;5052948;28;19963;-82
2022/01/21 11:02:02;;;;;;;;;;;;;;;;;;5088694;28;19952;-82
2022/01/21 11:04:29;;;;;;;;;;;;;;;;;;5087894;28;19972;-81
2022/01/21 11:06:58;;;;;;;;;;;;;;;;;;5084269;28;19944;-82
2022/01/21 11:09:24;;;;;;;;;;;;;;;;;;5089116;28;19952;-82
2022/01/21 11:11:50;;;;;;;;;;;;;;;;;;5084783;28;19951;-83
2022/01/21 11:14:16;;;;;;;;;;;;;;;;;;5084372;28;19963;-79
2022/01/21 11:16:46;;;;;;;;;;;;;;;;;;5086533;28;19928;-80
2022/01/21 11:19:14;;;;;;;;;;;;;;;;;;5068520;28;19951;-79
2022/01/21 11:21:40;;;;;;;;;;;;;;;;;;5068791;28;20487;-79
2022/01/21 11:24:06;;;;;;;;;;;;;;;;;;5085560;28;19956;-78
2022/01/21 11:26:32;;;;;;;;;;;;;;;;;;5050306;28;20032;-79
2022/01/21 11:28:58;;;;;;;;;;;;;;;;;;5084064;28;19955;-79
2022/01/21 11:31:25;;;;;;;;;;;;;;;;;;5087299;28;19954;-79
2022/01/21 11:33:51;;;;;;;;;;;;;;;;;;5086460;28;19948;-78
2022/01/21 11:36:18;;;;;;;;;;;;;;;;;;5078668;28;19970;-79
2022/01/21 11:38:45;;;;;;;;;;;;;;;;;;5060823;28;19951;-78
2022/01/21 11:41:11;;;;;;;;;;;;;;;;;;5085600;28;19962;-80
2022/01/21 11:43:37;;;;;;;;;;;;;;;;;;5076505;28;19964;-78
2022/01/21 11:46:16;;;;;;;;;;;;;;;;;;5085301;28;19974;-78
2022/01/21 11:48:51;;;;;;;;;;;;;;;;;;5087755;28;20008;-74
2022/01/21 11:51:18;;;;;;;;;;;;;;;;;;5083262;28;19952;-74
2022/01/21 11:53:44;;;;;;;;;;;;;;;;;;5064399;28;20620;-75
2022/01/21 11:56:10;;;;;;;;;;;;;;;;;;5082494;28;19956;-75
2022/01/21 11:58:36;;;;;;;;;;;;;;;;;;5085092;28;20026;-75
2022/01/21 12:01:06;;;;;;;;;;;;;;;;;;5084891;28;19956;-75
2022/01/21 12:06:31;;;;;;;;;;;;;;;;;;4978137;28;20329;-74
2022/01/21 12:08:59;;;;;;;;;;;;;;;;;;5052757;28;20474;-74
2022/01/21 12:11:25;;;;;;;;;;;;;;;;;;5085372;28;20344;-75
2022/01/21 12:13:51;;;;;;;;;;;;;;;;;;5086480;28;19952;-74
2022/01/21 12:16:24;;;;;;;;;;;;;;;;;;5083673;28;20463;-74
2022/01/21 12:19:09;;;;;;;;;;;;;;;;;;5085032;28;19985;-74
2022/01/21 12:21:35;;;;;;;;;;;;;;;;;;5082554;28;20032;-75
2022/01/21 12:24:01;;;;;;;;;;;;;;;;;;5085478;28;19951;-74
2022/01/21 12:26:27;;;;;;;;;;;;;;;;;;5079747;28;20008;-75
2022/01/21 12:28:53;;;;;;;;;;;;;;;;;;5062573;28;20380;-75
2022/01/21 12:31:20;;;;;;;;;;;;;;;;;;5083153;28;20013;-74
2022/01/21 12:33:49;;;;;;;;;;;;;;;;;;5080268;28;20536;-73
2022/01/21 12:36:15;;;;;;;;;;;;;;;;;;5084992;28;19924;-74
2022/01/21 12:41:08;;;;;;;;;;;;;;;;;;5086116;28;20468;-73
2022/01/21 12:43:34;;;;;;;;;;;;;;;;;;5084358;28;19951;-74
2022/01/21 12:46:00;;;;;;;;;;;;;;;;;;5084254;28;19966;-74
2022/01/21 12:48:27;;;;;;;;;;;;;;;;;;5080973;28;19959;-73
2022/01/21 12:50:59;;;;;;;;;;;;;;;;;;5084251;28;19963;-74
2022/01/21 12:53:25;;;;;;;;;;;;;;;;;;5083814;28;19955;-74
2022/01/21 12:55:55;;;;;;;;;;;;;;;;;;5083739;28;19952;-74
2022/01/21 12:58:21;;;;;;;;;;;;;;;;;;5085423;28;19959;-75
2022/01/21 13:00:47;;;;;;;;;;;;;;;;;;5065405;28;20403;-76
2022/01/21 13:03:14;;;;;;;;;;;;;;;;;;5078608;28;19959;-74
2022/01/21 13:05:40;;;;;;;;;;;;;;;;;;5084408;28;19951;-75
2022/01/21 13:08:06;;;;;;;;;;;;;;;;;;5083212;28;19978;-75
2022/01/21 13:10:32;;;;;;;;;;;;;;;;;;5081395;28;19974;-76
2022/01/21 13:15:28;;;;;;;;;;;;;;;;;;5075657;28;19966;-75
2022/01/21 13:17:57;;;;;;;;;;;;;;;;;;5081458;28;25788;-75
2022/01/21 13:20:23;;;;;;;;;;;;;;;;;;5083388;28;19967;-75
2022/01/21 13:22:49;;;;;;;;;;;;;;;;;;5083489;28;19959;-74
2022/01/21 13:25:17;;;;;;;;;;;;;;;;;;5082364;28;19962;-74
2022/01/21 13:27:43;;;;;;;;;;;;;;;;;;5084983;28;19951;-75
2022/01/21 13:30:10;;;;;;;;;;;;;;;;;;5085193;28;20384;-74
2022/01/21 13:32:36;;;;;;;;;;;;;;;;;;5084448;28;19952;-75
2022/01/21 13:35:02;;;;;;;;;;;;;;;;;;5078264;28;19994;-75
2022/01/21 13:37:28;;;;;;;;;;;;;;;;;;5077088;28;19962;-74
2022/01/21 13:39:54;;;;;;;;;;;;;;;;;;5082472;28;19956;-74
2022/01/21 13:42:23;;;;;;;;;;;;;;;;;;5079617;28;20325;-74
2022/01/21 13:44:49;;;;;;;;;;;;;;;;;;5084037;28;22283;-75
2022/01/21 13:47:15;;;;;;;;;;;;;;;;;;5082335;28;19963;-74
2022/01/21 13:49:42;;;;;;;;;;;;;;;;;;5082620;28;19959;-75
2022/01/21 13:52:08;;;;;;;;;;;;;;;;;;5084580;28;19944;-73
2022/01/21 13:54:34;;;;;;;;;;;;;;;;;;5061709;28;19951;-74
2022/01/21 13:57:00;;;;;;;;;;;;;;;;;;5064947;28;20440;-74
2022/01/21 13:59:26;;;;;;;;;;;;;;;;;;5077482;28;19947;-75
2022/01/21 14:01:53;;;;;;;;;;;;;;;;;;5083110;28;19975;-76
2022/01/21 14:04:19;;;;;;;;;;;;;;;;;;5064039;28;19964;-75
2022/01/21 14:06:45;;;;;;;;;;;;;;;;;;5064298;28;19978;-75
2022/01/21 14:09:11;;;;;;;;;;;;;;;;;;5079219;28;19928;-75
2022/01/21 14:11:47;;;;;;;;;;;;;;;;;;5084679;28;19948;-76
2022/01/21 14:14:15;;;;;;;;;;;;;;;;;;5066156;28;20012;-76
2022/01/21 14:16:43;;;;;;;;;;;;;;;;;;5083873;28;20596;-74
2022/01/21 14:19:10;;;;;;;;;;;;;;;;;;5082438;28;19963;-74
2022/01/21 14:21:37;;;;;;;;;;;;;;;;;;5064480;28;20025;-75
2022/01/21 14:24:03;;;;;;;;;;;;;;;;;;5087500;28;20371;-74
2022/01/21 14:26:29;;;;;;;;;;;;;;;;;;5087165;28;20003;-74
2022/01/21 14:28:55;;;;;;;;;;;;;;;;;;5086076;28;19974;-75
2022/01/21 14:31:21;;;;;;;;;;;;;;;;;;5085141;28;19955;-75
2022/01/21 14:33:47;;;;;;;;;;;;;;;;;;5061869;28;20514;-75
2022/01/21 14:36:14;;;;;;;;;;;;;;;;;;5082606;28;20000;-75
2022/01/21 14:38:40;;;;;;;;;;;;;;;;;;5068783;28;19963;-75
2022/01/21 14:41:06;;;;;;;;;;;;;;;;;;5083021;28;19963;-76
2022/01/21 14:43:32;;;;;;;;;;;;;;;;;;5082713;28;19959;-76
2022/01/21 14:45:59;;;;;;;;;;;;;;;;;;5083870;28;19959;-78
2022/01/21 14:48:28;;;;;;;;;;;;;;;;;;5085067;28;19943;-75
2022/01/21 14:50:54;;;;;;;;;;;;;;;;;;5081956;28;19955;-75
2022/01/21 14:53:20;;;;;;;;;;;;;;;;;;5083064;28;19954;-76
2022/01/21 14:55:47;;;;;;;;;;;;;;;;;;5083883;28;19964;-76
2022/01/21 14:58:13;;;;;;;;;;;;;;;;;;5087309;28;19947;-76
2022/01/21 15:00:39;;;;;;;;;;;;;;;;;;5085908;28;20492;-75
2022/01/21 15:03:05;;;;;;;;;;;;;;;;;;5085718;28;19948;-75
2022/01/21 15:05:31;;;;;;;;;;;;;;;;;;5083239;28;19962;-75
2022/01/21 15:07:58;;;;;;;;;;;;;;;;;;5085181;28;19952;-75
2022/01/21 15:10:44;;;;;;;;;;;;;;;;;;5086933;28;19959;-73
2022/01/21 15:15:55;;;;;;;;;;;;;;;;;;5078881;28;19963;-75
2022/01/21 15:18:24;;;;;;;;;;;;;;;;;;5080059;28;20028;-74
2022/01/21 15:20:50;;;;;;;;;;;;;;;;;;5086633;28;19924;-73
2022/01/21 15:23:16;;;;;;;;;;;;;;;;;;5086485;28;19969;-73
2022/01/21 15:25:42;;;;;;;;;;;;;;;;;;5084689;28;20012;-74
2022/01/21 15:28:09;;;;;;;;;;;;;;;;;;5065973;28;19959;-75
2022/01/21 15:30:35;;;;;;;;;;;;;;;;;;5083430;28;19963;-75
2022/01/21 15:33:01;;;;;;;;;;;;;;;;;;5079418;28;19951;-75
2022/01/21 15:35:28;;;;;;;;;;;;;;;;;;5050731;28;20523;-75
2022/01/21 15:37:55;;;;;;;;;;;;;;;;;;5083489;28;20490;-75
2022/01/21 15:40:21;;;;;;;;;;;;;;;;;;5082850;28;19979;-74
2022/01/21 15:42:47;;;;;;;;;;;;;;;;;;5083240;28;19916;-74
2022/01/21 15:45:13;;;;;;;;;;;;;;;;;;5082303;28;20006;-73
2022/01/21 15:47:39;;;;;;;;;;;;;;;;;;5083923;28;19948;-76
2022/01/21 15:50:05;;;;;;;;;;;;;;;;;;5085090;28;19955;-74
2022/01/21 15:52:32;;;;;;;;;;;;;;;;;;5084627;28;19959;-75
2022/01/21 15:54:58;;;;;;;;;;;;;;;;;;5085754;28;20033;-74
2022/01/21 15:57:24;;;;;;;;;;;;;;;;;;5085936;28;19956;-75
2022/01/21 15:59:50;;;;;;;;;;;;;;;;;;5085303;28;19952;-75
2022/01/21 16:02:17;;;;;;;;;;;;;;;;;;5082442;28;19955;-75
2022/01/21 16:04:43;;;;;;;;;;;;;;;;;;5085053;28;19979;-75
2022/01/21 16:07:09;;;;;;;;;;;;;;;;;;5083819;28;19970;-75
2022/01/21 16:09:35;;;;;;;;;;;;;;;;;;5065863;28;20457;-75
2022/01/21 16:12:02;;;;;;;;;;;;;;;;;;5085694;28;19982;-75
2022/01/21 16:14:28;;;;;;;;;;;;;;;;;;5065011;28;20050;-76
2022/01/21 16:16:54;;;;;;;;;;;;;;;;;;5061671;28;21213;-76
2022/01/21 16:19:20;;;;;;;;;;;;;;;;;;5083265;28;19971;-76
2022/01/21 16:21:46;;;;;;;;;;;;;;;;;;5083553;28;19944;-75
2022/01/21 16:24:12;;;;;;;;;;;;;;;;;;5084971;28;19966;-75
2022/01/21 16:26:39;;;;;;;;;;;;;;;;;;5083518;28;20348;-75
2022/01/21 16:29:05;;;;;;;;;;;;;;;;;;5079666;28;19968;-76
2022/01/21 16:31:31;;;;;;;;;;;;;;;;;;5082390;28;20601;-77
2022/01/21 16:33:57;;;;;;;;;;;;;;;;;;5083935;28;19963;-76
2022/01/21 16:36:23;;;;;;;;;;;;;;;;;;5084627;28;19988;-76
2022/01/21 16:38:50;;;;;;;;;;;;;;;;;;5082486;28;19947;-75
2022/01/21 16:41:16;;;;;;;;;;;;;;;;;;5083837;28;20491;-73
2022/01/21 16:43:43;;;;;;;;;;;;;;;;;;5082181;28;19967;-75
2022/01/21 16:46:09;;;;;;;;;;;;;;;;;;5063432;28;20365;-76
2022/01/21 16:48:35;;;;;;;;;;;;;;;;;;5082643;28;19963;-75
2022/01/21 16:51:01;;;;;;;;;;;;;;;;;;5064194;28;20411;-75
2022/01/21 16:53:28;;;;;;;;;;;;;;;;;;5065099;28;19962;-76
2022/01/21 16:55:54;;;;;;;;;;;;;;;;;;5080993;28;20423;-75
2022/01/21 17:01:12;;;;;;;;;;;;;;;;;;5075145;28;19920;-78
2022/01/21 17:03:38;;;;;;;;;;;;;;;;;;5044654;28;19921;-76
2022/01/21 17:06:04;;;;;;;;;;;;;;;;;;5082616;28;20017;-77
2022/01/21 17:08:30;;;;;;;;;;;;;;;;;;5083833;28;19955;-77
2022/01/21 17:10:57;;;;;;;;;;;;;;;;;;5062690;28;19948;-77
2022/01/21 17:13:23;;;;;;;;;;;;;;;;;;5077526;28;19959;-75
2022/01/21 17:15:49;;;;;;;;;;;;;;;;;;5083484;28;19958;-76
2022/01/21 17:18:18;;;;;;;;;;;;;;;;;;5084479;28;20435;-77
2022/01/21 17:20:44;;;;;;;;;;;;;;;;;;5075449;28;20471;-76
2022/01/21 17:23:10;;;;;;;;;;;;;;;;;;5078785;28;20029;-76
2022/01/21 17:25:36;;;;;;;;;;;;;;;;;;5082887;28;19951;-75
2022/01/21 17:28:02;;;;;;;;;;;;;;;;;;5060543;28;19956;-76
2022/01/21 17:30:28;;;;;;;;;;;;;;;;;;5059054;28;19967;-76
2022/01/21 17:32:55;;;;;;;;;;;;;;;;;;5079835;28;19963;-76
2022/01/21 17:35:21;;;;;;;;;;;;;;;;;;5076856;28;19920;-78
2022/01/21 17:37:47;;;;;;;;;;;;;;;;;;5045423;28;20386;-78
2022/01/21 17:40:13;;;;;;;;;;;;;;;;;;5083994;28;19920;-77
2022/01/21 17:42:40;;;;;;;;;;;;;;;;;;5082060;28;20343;-79